Time;durP1;ratioP1;P1;durP2;ratioP2;P2;SDS_P1;SDS_P2;PMS_P1;PMS_P2;Temp;Humidity;BMP_temperature;BMP_pressure;BME280_temperature;BME280_humidity;BME280_pressure;Samples;Min_cycle;Max_cycle;Signal;HPM_P1;HPM_P2
2022/06/20 00:02:03;;;;;;;10.13;8.30;;;25.10;99.20;;;;;;6071179;23;20427;-83
2022/06/20 00:04:30;;;;;;;13.10;8.00;;;25.00;99.60;;;;;;6085523;23;20438;-83
2022/06/20 00:06:57;;;;;;;11.40;7.97;;;25.00;99.90;;;;;;6060981;23;20976;-83
2022/06/20 00:09:25;;;;;;;11.03;7.97;;;25.00;99.90;;;;;;6069599;23;20443;-83
2022/06/20 00:11:52;;;;;;;12.27;7.63;;;24.90;99.90;;;;;;6080571;23;20793;-83
2022/06/20 00:14:21;;;;;;;9.50;8.60;;;24.90;99.90;;;;;;6089365;23;20945;-84
2022/06/20 00:16:49;;;;;;;9.97;7.63;;;24.80;99.90;;;;;;6067849;23;20467;-82
2022/06/20 00:19:16;;;;;;;8.60;7.70;;;24.80;99.90;;;;;;6072680;23;20459;-83
2022/06/20 00:21:43;;;;;;;8.93;7.87;;;24.80;99.90;;;;;;6069760;23;20439;-83
2022/06/20 00:24:10;;;;;;;10.23;8.30;;;24.80;99.90;;;;;;6074003;23;20934;-83
2022/06/20 00:26:39;;;;;;;9.93;7.40;;;24.80;99.90;;;;;;6056368;23;20482;-83
2022/06/20 00:29:07;;;;;;;10.77;8.00;;;24.80;99.90;;;;;;6073488;23;20537;-84
2022/06/20 00:31:35;;;;;;;38.30;34.53;;;24.80;99.90;;;;;;6060970;23;20439;-83
2022/06/20 00:34:03;;;;;;;11.63;9.10;;;24.70;99.90;;;;;;6063396;23;20435;-83
2022/06/20 00:36:30;;;;;;;8.63;7.70;;;24.70;99.90;;;;;;6072953;23;20486;-83
2022/06/20 00:38:58;;;;;;;8.93;8.10;;;24.70;99.90;;;;;;6069230;23;20434;-83
2022/06/20 00:41:29;;;;;;;11.93;8.80;;;24.70;99.90;;;;;;6082055;23;20453;-83
2022/06/20 00:43:58;;;;;;;8.40;7.70;;;24.60;99.90;;;;;;6082333;23;20447;-83
2022/06/20 00:46:32;;;;;;;10.47;9.00;;;24.60;99.90;;;;;;6061043;23;20483;-83
2022/06/20 00:49:06;;;;;;;11.53;9.30;;;24.60;99.90;;;;;;6070106;23;20451;-83
2022/06/20 00:51:39;;;;;;;9.60;7.83;;;24.50;99.90;;;;;;6082821;23;20440;-83
2022/06/20 00:54:12;;;;;;;11.07;8.87;;;24.40;99.90;;;;;;6073364;23;20446;-83
2022/06/20 00:56:50;;;;;;;9.27;8.30;;;24.20;99.90;;;;;;6061646;23;20557;-83
2022/06/20 00:59:26;;;;;;;10.17;8.50;;;24.00;99.90;;;;;;6067974;23;20564;-83
2022/06/20 01:01:56;;;;;;;9.13;8.30;;;23.90;99.90;;;;;;6058283;23;20514;-83
2022/06/20 01:04:30;;;;;;;9.40;8.40;;;23.80;99.90;;;;;;6072058;23;20526;-83
2022/06/20 01:06:58;;;;;;;11.83;9.00;;;23.60;99.90;;;;;;6058686;23;20487;-83
2022/06/20 01:09:31;;;;;;;11.50;8.80;;;23.40;99.90;;;;;;6085804;23;20434;-82
2022/06/20 01:12:02;;;;;;;12.93;9.00;;;23.20;99.90;;;;;;6065350;23;20451;-81
2022/06/20 01:14:34;;;;;;;10.80;9.70;;;22.80;99.90;;;;;;6063416;23;20481;-81
2022/06/20 01:17:06;;;;;;;11.57;9.40;;;22.40;99.90;;;;;;6056813;23;20463;-81
2022/06/20 01:19:47;;;;;;;14.13;10.30;;;22.20;99.90;;;;;;6068584;23;20469;-81
2022/06/20 01:22:45;;;;;;;11.33;10.20;;;22.00;99.90;;;;;;6086155;23;20971;-81
2022/06/20 01:25:28;;;;;;;14.30;11.63;;;21.90;99.90;;;;;;6055428;23;20450;-81
2022/06/20 01:27:57;;;;;;;12.97;10.70;;;21.80;99.90;;;;;;6064355;23;20447;-81
2022/06/20 01:30:27;;;;;;;15.83;10.53;;;21.70;99.90;;;;;;6064681;23;20458;-81
2022/06/20 01:32:56;;;;;;;14.40;10.17;;;21.60;99.90;;;;;;6062484;23;20458;-81
2022/06/20 01:38:09;;;;;;;11.37;9.53;;;21.70;99.90;;;;;;6061814;23;20495;-81
2022/06/20 01:40:36;;;;;;;13.10;11.83;;;21.80;99.90;;;;;;6064519;23;20516;-81
2022/06/20 01:43:07;;;;;;;13.70;12.27;;;22.00;99.90;;;;;;6061700;23;20501;-81
2022/06/20 01:48:22;;;;;;;11.17;10.07;;;22.30;99.90;;;;;;6051808;23;20471;-81
2022/06/20 01:50:49;;;;;;;12.20;10.23;;;22.40;99.90;;;;;;6089561;23;20541;-81
2022/06/20 01:53:19;;;;;;;14.33;9.87;;;22.50;99.90;;;;;;6070560;23;20449;-81
2022/06/20 01:55:52;;;;;;;12.10;9.50;;;22.60;99.90;;;;;;6088085;23;20466;-81
2022/06/20 01:58:25;;;;;;;12.83;10.10;;;22.70;99.90;;;;;;6061974;23;20547;-81
2022/06/20 02:00:52;;;;;;;10.87;9.47;;;22.80;99.90;;;;;;6088241;23;21027;-81
2022/06/20 02:03:21;;;;;;;11.00;9.20;;;22.90;99.90;;;;;;6066141;23;20437;-81
2022/06/20 02:05:53;;;;;;;12.00;10.40;;;23.00;99.90;;;;;;6063214;23;20463;-81
2022/06/20 02:08:22;;;;;;;10.43;9.40;;;23.10;99.90;;;;;;6051591;23;20435;-81
2022/06/20 02:10:55;;;;;;;12.57;11.30;;;23.20;99.90;;;;;;6063068;23;20802;-81
2022/06/20 02:13:28;;;;;;;15.07;11.70;;;23.20;99.90;;;;;;6062871;23;20450;-82
2022/06/20 02:15:59;;;;;;;14.30;11.50;;;23.30;99.90;;;;;;6064706;23;20463;-81
2022/06/20 02:18:29;;;;;;;12.97;11.67;;;23.30;99.90;;;;;;6058788;23;20447;-81
2022/06/20 02:21:00;;;;;;;13.90;11.37;;;23.20;99.90;;;;;;6064271;23;20518;-81
2022/06/20 02:23:31;;;;;;;13.40;12.03;;;23.10;99.90;;;;;;6065141;22;21187;-87
2022/06/20 02:26:00;;;;;;;12.93;11.73;;;23.00;99.90;;;;;;6058215;23;20830;-87
2022/06/20 02:28:34;;;;;;;15.83;12.10;;;22.90;99.90;;;;;;6057036;23;20455;-87
2022/06/20 02:31:02;;;;;;;13.50;12.37;;;22.90;99.90;;;;;;6057086;23;20448;-87
2022/06/20 02:33:31;;;;;;;12.97;11.77;;;22.80;99.90;;;;;;6059906;23;20451;-87
2022/06/20 02:35:59;;;;;;;14.57;12.83;;;22.90;99.90;;;;;;6059136;23;20546;-87
2022/06/20 02:38:27;;;;;;;14.80;12.40;;;22.90;99.90;;;;;;6059047;23;20440;-87
2022/06/20 02:40:56;;;;;;;15.20;12.07;;;22.80;99.90;;;;;;6061145;23;20447;-87
2022/06/20 02:43:27;;;;;;;15.43;11.97;;;22.80;99.90;;;;;;6059907;23;20442;-87
2022/06/20 02:45:57;;;;;;;17.00;12.77;;;22.80;99.90;;;;;;6058764;23;20459;-87
2022/06/20 02:48:26;;;;;;;15.30;13.07;;;22.80;99.90;;;;;;6049411;23;20443;-87
2022/06/20 02:50:57;;;;;;;14.63;13.20;;;22.70;99.90;;;;;;6058681;23;20439;-87
2022/06/20 02:53:31;;;;;;;14.88;13.38;;;22.60;99.90;;;;;;6051072;23;20432;-87
2022/06/20 02:55:58;;;;;;;16.17;13.77;;;22.50;99.90;;;;;;6059642;23;20204;-88
2022/06/20 02:58:30;;;;;;;15.63;13.97;;;22.30;99.90;;;;;;6059844;23;20443;-87
2022/06/20 03:01:03;;;;;;;17.40;15.70;;;22.20;99.90;;;;;;6069138;23;20448;-87
2022/06/20 03:03:34;;;;;;;16.88;15.27;;;22.00;99.90;;;;;;6063141;23;21054;-86
2022/06/20 03:06:03;;;;;;;16.97;15.17;;;21.90;99.90;;;;;;6049756;23;20262;-86
2022/06/20 03:08:31;;;;;;;16.87;15.37;;;21.80;99.90;;;;;;6051621;23;20459;-85
2022/06/20 03:11:03;;;;;;;16.23;14.73;;;21.70;99.90;;;;;;6058568;23;20443;-85
2022/06/20 03:13:32;;;;;;;20.17;15.70;;;21.60;99.90;;;;;;6062159;23;20451;-85
2022/06/20 03:16:03;;;;;;;15.53;13.90;;;21.60;99.90;;;;;;6058523;23;20467;-86
2022/06/20 03:18:31;;;;;;;16.83;14.93;;;21.60;99.90;;;;;;6059198;23;20974;-85
2022/06/20 03:20:58;;;;;;;17.10;14.43;;;21.60;99.90;;;;;;6056357;23;20219;-83
2022/06/20 03:23:29;;;;;;;17.27;15.90;;;21.60;99.90;;;;;;6056051;23;20919;-83
2022/06/20 03:25:57;;;;;;;16.93;15.00;;;21.70;99.90;;;;;;6057081;23;21314;-83
2022/06/20 03:28:25;;;;;;;15.40;13.90;;;21.80;99.90;;;;;;6060664;23;20446;-84
2022/06/20 03:30:53;;;;;;;15.27;14.00;;;21.80;99.90;;;;;;6051532;23;20439;-83
2022/06/20 03:33:22;;;;;;;15.40;13.87;;;21.80;99.90;;;;;;6059237;23;20479;-84
2022/06/20 03:35:54;;;;;;;15.03;13.50;;;21.90;99.90;;;;;;6053667;23;20534;-83
2022/06/20 03:38:22;;;;;;;13.87;12.53;;;22.00;99.90;;;;;;6054265;23;20466;-83
2022/06/20 03:40:50;;;;;;;15.03;13.63;;;22.00;99.90;;;;;;6054757;23;20443;-83
2022/06/20 03:43:22;;;;;;;14.27;12.80;;;22.10;99.90;;;;;;6064172;23;20443;-83
2022/06/20 03:45:53;;;;;;;14.20;12.83;;;22.10;99.90;;;;;;6045801;23;22318;-86
2022/06/20 03:48:28;;;;;;;14.70;12.43;;;22.20;99.90;;;;;;6045291;23;20483;-83
2022/06/20 03:50:59;;;;;;;13.40;11.53;;;22.20;99.90;;;;;;6055363;23;20457;-84
2022/06/20 03:53:32;;;;;;;12.90;11.60;;;22.20;99.90;;;;;;6055761;23;20530;-83
2022/06/20 03:56:05;;;;;;;12.20;10.33;;;22.20;99.90;;;;;;6056770;23;20550;-84
2022/06/20 03:58:38;;;;;;;11.43;10.27;;;22.20;99.90;;;;;;6053933;23;20481;-88
2022/06/20 04:01:11;;;;;;;12.87;11.60;;;22.20;99.90;;;;;;6056248;23;20800;-87
2022/06/20 04:03:45;;;;;;;11.87;10.60;;;22.30;99.90;;;;;;6058648;23;20463;-84
2022/06/20 04:06:17;;;;;;;12.07;10.87;;;22.20;99.90;;;;;;6058720;23;20458;-88
2022/06/20 04:11:37;;;;;;;12.07;10.87;;;22.10;99.90;;;;;;6055650;23;20462;-85
2022/06/20 04:14:10;;;;;;;11.20;9.20;;;22.00;99.90;;;;;;6054886;23;21028;-84
2022/06/20 04:16:43;;;;;;;10.87;9.73;;;21.90;99.90;;;;;;6054806;23;20451;-84
2022/06/20 04:19:14;;;;;;;10.53;9.40;;;21.80;99.90;;;;;;6056395;23;20451;-83
2022/06/20 04:21:48;;;;;;;9.87;8.67;;;21.80;99.90;;;;;;6057515;23;20790;-86
2022/06/20 04:24:22;;;;;;;9.97;8.93;;;21.70;99.90;;;;;;6047984;23;20458;-84
2022/06/20 04:26:55;;;;;;;12.00;8.83;;;21.70;99.90;;;;;;6055558;23;20494;-84
2022/06/20 04:29:27;;;;;;;9.37;8.47;;;21.70;99.90;;;;;;6055292;23;20518;-84
2022/06/20 04:32:01;;;;;;;8.93;7.80;;;21.60;99.90;;;;;;6065832;23;20443;-85
2022/06/20 04:34:33;;;;;;;12.30;8.37;;;21.60;99.90;;;;;;6056664;23;20475;-85
2022/06/20 04:37:05;;;;;;;10.03;9.00;;;21.60;99.90;;;;;;6056614;23;20510;-86
2022/06/20 04:39:39;;;;;;;8.30;7.43;;;21.60;99.90;;;;;;6056158;23;20451;-85
2022/06/20 04:42:12;;;;;;;11.43;8.20;;;21.50;99.90;;;;;;6048685;23;20509;-83
2022/06/20 04:44:46;;;;;;;11.87;9.13;;;21.30;99.90;;;;;;6057287;23;20459;-84
2022/06/20 04:47:30;;;;;;;10.73;8.60;;;21.10;99.90;;;;;;6050035;23;20467;-82
2022/06/20 04:49:59;;;;;;;9.70;8.80;;;21.00;99.90;;;;;;6045619;23;20427;-82
2022/06/20 04:52:30;;;;;;;10.03;8.80;;;20.80;99.90;;;;;;6059278;23;20522;-84
2022/06/20 04:54:58;;;;;;;9.10;8.20;;;20.60;99.90;;;;;;6057107;23;20465;-83
2022/06/20 04:57:28;;;;;;;9.07;8.13;;;20.60;99.90;;;;;;6051083;23;20517;-84
2022/06/20 04:59:57;;;;;;;10.07;7.77;;;20.60;99.90;;;;;;6059284;23;20784;-83
2022/06/20 05:02:26;;;;;;;9.70;8.23;;;20.60;99.90;;;;;;6042779;23;20439;-84
2022/06/20 05:04:56;;;;;;;9.90;8.20;;;20.60;99.90;;;;;;6045790;23;20459;-84
2022/06/20 05:07:28;;;;;;;9.77;7.63;;;20.70;99.90;;;;;;6051359;23;20927;-83
2022/06/20 05:10:02;;;;;;;8.63;7.73;;;20.60;99.90;;;;;;6056728;23;20452;-84
2022/06/20 05:12:44;;;;;;;8.57;6.90;;;20.70;99.90;;;;;;6055452;23;21048;-83
2022/06/20 05:15:25;;;;;;;9.10;7.17;;;20.60;99.90;;;;;;6056437;23;22138;-82
2022/06/20 05:17:54;;;;;;;9.90;7.30;;;20.70;99.90;;;;;;6042737;23;21067;-79
2022/06/20 05:20:25;;;;;;;10.43;7.53;;;20.80;99.90;;;;;;6054572;23;20442;-79
2022/06/20 05:23:00;;;;;;;6.87;6.23;;;20.80;99.90;;;;;;6052859;23;20436;-81
2022/06/20 05:25:29;;;;;;;7.20;6.50;;;20.80;99.90;;;;;;6053245;23;20547;-79
2022/06/20 05:27:59;;;;;;;7.27;6.57;;;20.80;99.90;;;;;;6051069;23;21055;-80
2022/06/20 05:30:30;;;;;;;9.97;6.80;;;20.80;99.90;;;;;;6052211;23;20953;-81
2022/06/20 05:33:01;;;;;;;8.20;6.13;;;20.90;99.90;;;;;;6053900;23;20941;-81
2022/06/20 05:35:36;;;;;;;7.60;6.50;;;20.90;99.90;;;;;;6059327;23;20622;-83
2022/06/20 05:38:15;;;;;;;9.67;6.63;;;20.90;99.90;;;;;;6053645;23;20431;-83
2022/06/20 05:40:48;;;;;;;9.93;7.23;;;20.90;99.90;;;;;;6054029;23;20451;-83
2022/06/20 05:43:19;;;;;;;7.83;7.00;;;20.60;99.90;;;;;;6048766;23;20448;-83
2022/06/20 05:45:49;;;;;;;10.43;6.43;;;20.50;99.90;;;;;;6055372;23;20475;-83
2022/06/20 05:48:17;;;;;;;9.17;6.50;;;20.50;99.90;;;;;;6054803;23;20479;-84
2022/06/20 05:50:50;;;;;;;8.97;6.63;;;20.50;99.90;;;;;;6057024;23;20446;-83
2022/06/20 05:53:24;;;;;;;7.80;7.00;;;20.50;99.90;;;;;;6055925;23;20497;-83
2022/06/20 05:55:54;;;;;;;10.17;7.60;;;20.50;99.90;;;;;;6050102;23;20511;-84
2022/06/20 05:58:25;;;;;;;7.93;6.63;;;20.50;99.90;;;;;;6050632;23;20946;-84
2022/06/20 06:00:56;;;;;;;8.20;6.27;;;20.60;99.90;;;;;;6059050;23;20443;-84
2022/06/20 06:03:29;;;;;;;7.13;6.40;;;20.80;99.90;;;;;;6055487;23;20469;-83
2022/06/20 06:06:01;;;;;;;6.60;6.00;;;20.90;99.90;;;;;;6055606;23;20464;-83
2022/06/20 06:08:36;;;;;;;6.37;5.77;;;21.10;99.90;;;;;;6056058;23;20471;-83
2022/06/20 06:11:09;;;;;;;8.43;5.80;;;21.20;99.90;;;;;;6053700;23;20817;-84
2022/06/20 06:13:46;;;;;;;8.13;6.30;;;21.50;99.90;;;;;;6054655;23;20766;-84
2022/06/20 06:19:10;;;;;;;6.67;5.27;;;21.80;99.90;;;;;;6053041;23;20965;-83
2022/06/20 06:21:38;;;;;;;6.93;5.07;;;22.10;99.90;;;;;;6053963;23;20470;-84
2022/06/20 06:24:10;;;;;;;6.70;5.57;;;22.20;99.90;;;;;;6049079;23;20998;-83
2022/06/20 06:26:37;;;;;;;10.33;5.43;;;22.30;99.90;;;;;;6051204;23;20459;-84
2022/06/20 06:29:07;;;;;;;6.00;5.27;;;22.50;99.90;;;;;;6052808;23;20978;-84
2022/06/20 06:31:40;;;;;;;6.47;5.27;;;22.60;99.90;;;;;;6057495;23;20447;-84
2022/06/20 06:34:20;;;;;;;8.13;5.27;;;22.80;99.90;;;;;;6048848;23;20455;-84
2022/06/20 06:36:51;;;;;;;6.63;5.40;;;22.80;99.90;;;;;;6051575;23;20443;-84
2022/06/20 06:39:24;;;;;;;8.60;6.03;;;22.80;99.90;;;;;;6053125;23;20493;-83
2022/06/20 06:41:56;;;;;;;6.40;5.73;;;23.00;99.90;;;;;;6057553;23;20442;-84
2022/06/20 06:44:30;;;;;;;7.07;5.30;;;22.90;99.90;;;;;;6052210;23;20870;-84
2022/06/20 06:46:58;;;;;;;9.73;6.13;;;23.00;99.90;;;;;;6054531;23;20436;-84
2022/06/20 06:49:32;;;;;;;7.40;6.50;;;22.90;99.90;;;;;;6052560;23;20454;-84
2022/06/20 06:52:06;;;;;;;8.70;6.37;;;22.80;99.90;;;;;;6055617;23;20450;-84
2022/06/20 06:54:53;;;;;;;8.77;6.73;;;22.60;99.90;;;;;;6046751;23;20459;-85
2022/06/20 06:57:25;;;;;;;10.03;6.57;;;22.60;99.90;;;;;;6055513;23;20453;-85
2022/06/20 07:00:15;;;;;;;11.40;6.60;;;22.80;99.90;;;;;;6050502;23;20451;-84
2022/06/20 07:02:51;;;;;;;7.83;6.03;;;22.80;99.90;;;;;;6046908;23;20435;-84
2022/06/20 07:05:26;;;;;;;6.70;6.00;;;23.00;99.90;;;;;;6048835;23;20456;-84
2022/06/20 07:07:57;;;;;;;7.60;6.07;;;22.90;99.90;;;;;;6056791;23;20509;-84
2022/06/20 07:10:31;;;;;;;8.37;6.53;;;23.00;99.90;;;;;;6053862;23;20506;-84
2022/06/20 07:13:03;;;;;;;8.10;6.80;;;23.10;99.90;;;;;;6056203;23;20536;-85
2022/06/20 07:15:31;;;;;;;9.50;6.40;;;23.00;99.90;;;;;;6058639;23;20477;-85
2022/06/20 07:18:01;;;;;;;6.87;6.20;;;23.00;99.90;;;;;;6052453;23;20530;-85
2022/06/20 07:20:32;;;;;;;9.57;6.83;;;23.10;99.90;;;;;;6056607;23;20783;-85
2022/06/20 07:23:06;;;;;;;8.17;6.60;;;23.30;99.90;;;;;;6048214;23;20438;-86
2022/06/20 07:25:39;;;;;;;6.80;5.90;;;23.50;99.90;;;;;;6056823;23;20562;-85
2022/06/20 07:28:13;;;;;;;7.70;5.93;;;23.80;99.90;;;;;;6057017;23;20640;-85
2022/06/20 07:30:45;;;;;;;8.70;7.27;;;24.10;99.90;;;;;;6058765;23;20802;-85
2022/06/20 07:33:17;;;;;;;7.27;6.57;;;24.40;99.90;;;;;;6057334;23;21011;-85
2022/06/20 07:35:47;;;;;;;6.50;5.30;;;24.60;99.90;;;;;;6056401;23;20566;-86
2022/06/20 07:38:19;;;;;;;7.10;6.17;;;24.90;99.90;;;;;;6056020;23;20530;-85
2022/06/20 07:40:50;;;;;;;7.03;5.20;;;25.30;99.90;;;;;;6058109;23;20454;-86
2022/06/20 07:43:21;;;;;;;6.40;5.30;;;25.70;99.90;;;;;;6059075;23;20449;-86
2022/06/20 07:45:51;;;;;;;8.33;6.50;;;26.20;99.90;;;;;;6054753;23;20450;-86
2022/06/20 07:48:21;;;;;;;6.03;5.20;;;26.90;99.90;;;;;;6057144;23;20485;-86
2022/06/20 07:50:53;;;;;;;7.63;5.73;;;27.50;99.90;;;;;;6056801;23;20447;-85
2022/06/20 07:53:25;;;;;;;7.30;5.97;;;27.90;99.90;;;;;;6058544;23;20530;-85
2022/06/20 07:55:59;;;;;;;6.67;5.33;;;28.10;99.90;;;;;;6052410;23;20482;-85
2022/06/20 07:58:30;;;;;;;8.37;5.60;;;28.00;99.90;;;;;;6057759;23;20498;-85
2022/06/20 08:01:01;;;;;;;7.20;5.40;;;28.10;99.90;;;;;;6058272;23;20440;-85
2022/06/20 08:03:34;;;;;;;7.30;5.37;;;28.30;99.90;;;;;;6057976;23;20575;-85
2022/06/20 08:06:04;;;;;;;7.80;5.53;;;28.50;99.90;;;;;;6056356;23;21696;-86
2022/06/20 08:08:38;;;;;;;7.13;5.37;;;28.80;99.90;;;;;;6048398;23;20475;-95
2022/06/20 08:11:39;;;;;;;6.27;5.67;;;29.00;99.90;;;;;;6061522;23;20984;-95
2022/06/20 08:14:04;;;;;;;7.07;4.57;;;28.90;99.50;;;;;;6059842;23;20451;-94
2022/06/20 08:16:33;;;;;;;8.50;5.40;;;28.90;98.90;;;;;;6055122;23;20432;-93
2022/06/20 08:19:01;;;;;;;9.47;5.97;;;29.10;98.70;;;;;;6060341;23;20523;-94
2022/06/20 08:21:34;;;;;;;9.07;6.27;;;29.10;98.70;;;;;;6059391;23;20522;-94
2022/06/20 08:24:04;;;;;;;6.37;4.90;;;29.20;98.60;;;;;;6058094;23;20471;-94
2022/06/20 08:26:37;;;;;;;5.80;5.30;;;29.60;98.10;;;;;;6057820;23;20776;-93
2022/06/20 08:29:13;;;;;;;7.83;5.10;;;30.00;97.10;;;;;;6062815;23;20504;-94
2022/06/20 08:31:44;;;;;;;9.37;5.50;;;30.40;95.80;;;;;;6061002;23;20810;-93
2022/06/20 08:34:18;;;;;;;7.53;6.07;;;30.60;95.30;;;;;;6061406;23;20518;-92
2022/06/20 08:36:50;;;;;;;10.03;5.20;;;30.70;94.80;;;;;;6055981;23;20439;-93
2022/06/20 08:39:23;;;;;;;10.10;5.60;;;30.80;94.30;;;;;;6061797;23;20497;-95
2022/06/20 08:42:21;;;;;;;8.30;5.90;;;31.00;93.60;;;;;;6041858;23;20448;-95
2022/06/20 08:45:19;;;;;;;8.77;5.47;;;30.80;92.70;;;;;;6060584;23;20482;-95
2022/06/20 08:48:20;;;;;;;6.90;5.30;;;30.90;92.70;;;;;;6055678;23;20479;-95
2022/06/20 08:51:08;;;;;;;6.63;5.30;;;31.00;92.10;;;;;;6049246;23;20442;-94
2022/06/20 08:54:15;;;;;;;6.40;5.30;;;31.00;91.00;;;;;;6053407;23;20471;-94
2022/06/20 08:56:55;;;;;;;8.20;5.63;;;30.90;90.60;;;;;;6064622;23;20453;-94
2022/06/20 08:59:41;;;;;;;6.63;4.80;;;31.10;90.40;;;;;;6060240;23;21002;-95
2022/06/20 09:02:23;;;;;;;7.50;5.37;;;31.50;90.00;;;;;;6063790;23;20450;-95
2022/06/20 09:05:18;;;;;;;6.47;5.23;;;31.90;88.60;;;;;;6057981;23;20503;-94
2022/06/20 09:08:04;;;;;;;8.83;5.50;;;31.60;87.70;;;;;;6065088;23;20454;-95
2022/06/20 09:11:02;;;;;;;7.80;5.40;;;32.00;87.40;;;;;;6050628;23;20529;-94
2022/06/20 09:13:58;;;;;;;7.03;5.03;;;32.00;86.40;;;;;;6044353;23;20470;-94
2022/06/20 09:16:36;;;;;;;8.60;5.37;;;31.80;86.10;;;;;;6063041;23;20510;-95
2022/06/20 09:19:40;;;;;;;8.50;5.53;;;31.50;87.20;;;;;;6061873;23;20515;-95
2022/06/20 09:22:28;;;;;;;8.10;5.87;;;31.80;86.00;;;;;;5965356;24;20468;-95
2022/06/20 09:25:07;;;;;;;6.10;5.60;;;31.80;84.90;;;;;;6053558;23;20459;-93
2022/06/20 09:27:44;;;;;;;6.83;5.37;;;31.90;85.50;;;;;;6062572;23;20447;-96
2022/06/20 09:30:16;;;;;;;7.13;5.67;;;32.40;84.80;;;;;;6062201;23;20446;-93
2022/06/20 09:33:44;;;;;;;9.10;5.67;;;32.80;83.80;;;;;;6063707;23;20531;-94
2022/06/20 09:36:40;;;;;;;7.40;5.17;;;33.40;82.50;;;;;;5961544;23;20438;-89
2022/06/20 09:39:22;;;;;;;8.20;5.03;;;33.60;80.00;;;;;;5969411;24;20528;-92
2022/06/20 09:42:01;;;;;;;8.20;5.80;;;33.50;80.30;;;;;;6057798;23;20438;-93
2022/06/20 09:44:49;;;;;;;7.53;5.57;;;33.40;79.20;;;;;;6059686;23;20503;-92
2022/06/20 09:47:29;;;;;;;5.97;5.30;;;33.40;79.70;;;;;;6063042;23;20463;-93
2022/06/20 09:50:08;;;;;;;7.40;5.50;;;33.70;79.80;;;;;;6064747;23;20477;-95
2022/06/20 09:52:49;;;;;;;5.50;4.93;;;34.20;77.30;;;;;;6067440;23;20493;-95
2022/06/20 09:55:25;;;;;;;6.60;4.90;;;33.70;77.70;;;;;;6066436;23;20470;-96
2022/06/20 09:58:00;;;;;;;6.67;5.13;;;33.00;79.20;;;;;;6067111;23;20473;-95
2022/06/20 10:00:34;;;;;;;9.03;5.97;;;32.80;79.70;;;;;;6064308;23;20533;-95
2022/06/20 10:03:21;;;;;;;7.17;5.90;;;33.20;79.00;;;;;;6067006;23;20465;-95
2022/06/20 10:05:56;;;;;;;7.90;5.47;;;33.50;78.50;;;;;;6065708;23;20450;-92
2022/06/20 10:08:37;;;;;;;8.23;5.50;;;34.20;75.90;;;;;;6069345;23;20465;-94
2022/06/20 10:11:12;;;;;;;9.60;5.60;;;34.70;73.60;;;;;;6067085;23;20436;-92
2022/06/20 10:13:49;;;;;;;6.27;5.30;;;34.60;72.60;;;;;;6060119;23;20450;-93
2022/06/20 10:16:30;;;;;;;6.70;5.13;;;33.90;73.40;;;;;;6056943;23;20922;-94
2022/06/20 10:19:08;;;;;;;10.03;5.63;;;33.10;75.90;;;;;;6058705;23;20447;-94
2022/06/20 10:21:42;;;;;;;7.70;5.33;;;32.80;76.70;;;;;;6058451;23;20435;-80
2022/06/20 10:24:36;;;;;;;8.07;4.97;;;32.70;76.60;;;;;;6063591;23;20481;-95
2022/06/20 10:27:23;;;;;;;6.67;5.60;;;32.60;77.50;;;;;;6023947;23;20442;-96
2022/06/20 10:30:02;;;;;;;7.30;5.63;;;32.60;77.80;;;;;;6061344;23;20535;-94
2022/06/20 10:32:43;;;;;;;8.40;5.60;;;32.60;78.00;;;;;;6066066;23;20458;-95
2022/06/20 10:35:17;;;;;;;6.83;5.53;;;32.40;77.70;;;;;;6065850;23;20453;-94
2022/06/20 10:37:56;;;;;;;7.27;5.17;;;32.50;79.10;;;;;;6066012;23;20447;-95
2022/06/20 10:40:48;;;;;;;7.40;5.20;;;33.00;78.50;;;;;;6065077;23;20478;-94
2022/06/20 10:43:28;;;;;;;10.10;5.20;;;33.60;76.10;;;;;;6046978;23;20570;-95
2022/06/20 10:46:01;;;;;;;6.80;6.10;;;33.70;74.80;;;;;;6059049;23;20482;-96
2022/06/20 10:48:47;;;;;;;9.17;5.63;;;33.60;75.10;;;;;;6065656;23;20448;-96
2022/06/20 10:51:21;;;;;;;7.97;5.23;;;33.60;75.00;;;;;;6065412;23;20431;-94
2022/06/20 10:54:00;;;;;;;6.87;6.27;;;32.80;75.60;;;;;;6067972;23;20530;-94
2022/06/20 10:56:35;;;;;;;6.37;5.63;;;32.10;77.70;;;;;;6060231;23;20451;-94
2022/06/20 10:59:20;;;;;;;9.73;5.80;;;32.10;79.50;;;;;;6062887;23;20994;-95
2022/06/20 11:01:51;;;;;;;6.33;5.73;;;32.50;77.60;;;;;;6062020;23;20462;-94
2022/06/20 11:04:40;;;;;;;8.53;6.20;;;32.50;78.20;;;;;;6065315;23;20459;-95
2022/06/20 11:07:27;;;;;;;8.00;5.40;;;32.60;77.50;;;;;;6063493;23;20428;-96
2022/06/20 11:10:12;;;;;;;7.63;6.83;;;32.70;76.70;;;;;;6062987;23;20479;-94
2022/06/20 11:12:53;;;;;;;5.43;4.93;;;32.50;76.90;;;;;;6078223;23;20459;-95
2022/06/20 11:15:26;;;;;;;7.43;5.57;;;32.40;77.60;;;;;;6076890;23;20431;-94
2022/06/20 11:18:04;;;;;;;6.23;5.37;;;32.50;77.90;;;;;;6085107;23;20415;-95
2022/06/20 11:20:35;;;;;;;7.03;5.93;;;32.50;77.70;;;;;;6075086;23;20462;-94
2022/06/20 11:23:15;;;;;;;7.13;6.00;;;32.50;75.80;;;;;;6085470;23;20451;-95
2022/06/20 11:25:52;;;;;;;6.43;5.60;;;32.40;77.10;;;;;;6085647;23;20447;-92
2022/06/20 11:28:39;;;;;;;6.70;5.50;;;31.80;77.10;;;;;;6065582;23;20443;-94
2022/06/20 11:31:11;;;;;;;7.97;5.80;;;31.40;77.80;;;;;;6063028;23;20862;-95
2022/06/20 11:34:04;;;;;;;6.53;4.90;;;31.30;78.00;;;;;;6060417;23;20538;-95
2022/06/20 11:36:49;;;;;;;5.80;4.97;;;31.10;78.00;;;;;;6058997;23;20518;-95
2022/06/20 11:39:33;;;;;;;8.13;4.70;;;31.10;77.90;;;;;;6053169;23;20440;-94
2022/06/20 11:42:13;;;;;;;6.43;5.10;;;30.90;79.40;;;;;;6053821;23;20438;-93
2022/06/20 11:45:03;;;;;;;5.80;4.53;;;31.10;80.90;;;;;;6053935;23;20435;-94
2022/06/20 11:47:49;;;;;;;5.63;5.00;;;30.70;80.30;;;;;;6056678;23;20440;-95
2022/06/20 11:50:32;;;;;;;6.53;5.40;;;30.90;81.40;;;;;;6055012;23;20899;-94
2022/06/20 11:53:42;;;;;;;7.27;5.00;;;30.80;81.80;;;;;;6056278;23;20493;-94
2022/06/20 11:56:25;;;;;;;7.07;5.73;;;30.40;83.80;;;;;;6060538;23;20846;-94
2022/06/20 11:59:40;;;;;;;7.90;5.40;;;30.40;84.30;;;;;;6054431;23;20447;-96
2022/06/20 12:02:22;;;;;;;9.10;5.73;;;30.10;84.80;;;;;;6058483;23;20439;-95
2022/06/20 12:04:58;;;;;;;7.03;5.53;;;29.80;87.30;;;;;;6055025;23;20439;-94
2022/06/20 12:07:34;;;;;;;9.20;5.60;;;29.90;87.10;;;;;;6055281;23;20443;-95
2022/06/20 12:10:22;;;;;;;6.50;5.10;;;29.70;86.90;;;;;;6056727;23;22110;-94
2022/06/20 12:13:00;;;;;;;6.90;4.87;;;29.40;86.40;;;;;;6058187;23;20463;-95
2022/06/20 12:15:46;;;;;;;4.70;4.20;;;29.30;86.50;;;;;;6049894;23;20756;-95
2022/06/20 12:18:31;;;;;;;5.70;5.00;;;29.60;86.50;;;;;;6055428;23;20459;-94
2022/06/20 12:23:50;;;;;;;7.33;5.17;;;30.00;84.90;;;;;;6057193;23;20475;-94
2022/06/20 12:26:23;;;;;;;7.33;4.63;;;30.20;84.00;;;;;;6053651;23;20443;-94
2022/06/20 12:28:53;;;;;;;6.50;4.50;;;30.10;84.50;;;;;;6057326;23;20478;-96
2022/06/20 12:31:25;;;;;;;5.83;4.67;;;30.20;84.30;;;;;;6060250;23;20478;-95
2022/06/20 12:33:55;;;;;;;5.50;4.30;;;30.00;83.90;;;;;;6057842;23;20458;-96
2022/06/20 12:36:32;;;;;;;5.80;4.83;;;29.70;84.80;;;;;;6058054;23;20439;-92
2022/06/20 12:39:04;;;;;;;7.10;5.20;;;29.40;84.80;;;;;;6060386;23;20447;-93
2022/06/20 12:41:37;;;;;;;8.07;5.50;;;29.30;85.80;;;;;;6061220;23;20450;-95
2022/06/20 12:44:21;;;;;;;7.57;5.53;;;29.20;86.10;;;;;;6065135;23;20463;-94
2022/06/20 12:47:01;;;;;;;7.27;4.67;;;29.20;86.50;;;;;;6060389;23;20435;-93
2022/06/20 12:49:47;;;;;;;8.00;4.60;;;28.60;86.80;;;;;;6065633;23;20511;-93
2022/06/20 12:52:19;;;;;;;5.00;4.50;;;28.50;88.00;;;;;;6063248;23;20439;-94
2022/06/20 12:55:22;;;;;;;7.50;4.33;;;29.00;87.80;;;;;;6064988;23;20841;-93
2022/06/20 12:58:03;;;;;;;8.43;4.50;;;29.60;86.80;;;;;;6045168;23;20474;-93
2022/06/20 13:00:42;;;;;;;7.50;5.17;;;30.20;85.20;;;;;;6064973;23;20442;-93
2022/06/20 13:04:07;;;;;;;8.30;4.77;;;29.90;84.60;;;;;;6065539;23;20818;-94
2022/06/20 13:06:59;;;;;;;5.43;4.40;;;29.80;85.90;;;;;;5971319;23;20896;-93
2022/06/20 13:09:58;;;;;;;7.33;4.27;;;29.90;86.30;;;;;;5948960;23;20461;-95
2022/06/20 13:12:40;;;;;;;8.50;4.50;;;30.00;85.70;;;;;;6047195;23;20467;-95
2022/06/20 13:15:43;;;;;;;5.83;4.30;;;30.10;85.40;;;;;;6058646;23;20453;-94
2022/06/20 13:18:38;;;;;;;6.43;4.83;;;29.80;85.60;;;;;;6061855;23;20829;-93
2022/06/20 13:21:16;;;;;;;7.23;4.43;;;28.90;87.70;;;;;;6050081;23;20447;-93
2022/06/20 13:23:52;;;;;;;7.40;4.30;;;28.30;89.70;;;;;;6060110;23;20481;-93
2022/06/20 13:26:30;;;;;;;7.43;3.87;;;28.20;90.60;;;;;;6058775;23;20467;-93
2022/06/20 13:29:06;;;;;;;5.83;3.43;;;28.20;91.00;;;;;;6066257;23;21233;-95
2022/06/20 13:31:51;;;;;;;4.00;3.60;;;28.10;90.80;;;;;;6065187;23;20533;-94
2022/06/20 13:34:35;;;;;;;5.03;3.97;;;28.00;91.00;;;;;;6064453;23;20446;-93
2022/06/20 13:37:14;;;;;;;3.77;3.47;;;28.00;91.00;;;;;;6060544;23;20925;-93
2022/06/20 13:39:46;;;;;;;4.23;3.80;;;28.00;90.90;;;;;;6062349;23;20455;-94